Time;durP1;ratioP1;P1;durP2;ratioP2;P2;SDS_P1;SDS_P2;PMS_P1;PMS_P2;Temp;Humidity;BMP_temperature;BMP_pressure;BME280_temperature;BME280_humidity;BME280_pressure;Samples;Min_cycle;Max_cycle;Signal;HPM_P1;HPM_P2
2021/08/15 00:00:17;;;;;;;10.40;4.87;;;;;;;17.43;100.00;101176.00;1796862;79;20850;-87
2021/08/15 00:02:43;;;;;;;11.65;4.37;;;;;;;17.44;100.00;101174.36;1796767;79;21001;-87
2021/08/15 00:05:10;;;;;;;9.20;4.92;;;;;;;17.43;100.00;101171.91;1798352;79;20966;-87
2021/08/15 00:07:38;;;;;;;9.40;4.53;;;;;;;17.43;100.00;101171.91;1796663;79;21092;-87
2021/08/15 00:10:05;;;;;;;12.90;4.37;;;;;;;17.30;100.00;101154.38;1793907;80;21148;-88
2021/08/15 00:12:32;;;;;;;11.30;4.30;;;;;;;17.30;100.00;101150.28;1793877;80;21013;-86
2021/08/15 00:14:58;;;;;;;11.43;4.55;;;;;;;17.30;100.00;101150.28;1774074;79;21002;-88
2021/08/15 00:17:24;;;;;;;13.48;4.83;;;;;;;17.39;100.00;101162.16;1794109;80;21120;-86
2021/08/15 00:19:49;;;;;;;11.00;5.17;;;;;;;17.41;100.00;101166.77;1794189;80;21706;-93
2021/08/15 00:22:15;;;;;;;13.38;4.78;;;;;;;17.39;100.00;101162.16;1794183;80;21151;-87
2021/08/15 00:24:41;;;;;;;11.28;4.83;;;;;;;17.41;100.00;101164.58;1794000;80;20929;-88
2021/08/15 00:27:07;;;;;;;10.25;4.65;;;;;;;17.40;100.00;101158.87;1794184;80;20870;-87
2021/08/15 00:29:33;;;;;;;14.07;4.85;;;;;;;17.40;100.00;101159.69;1794075;80;21395;-86
2021/08/15 00:31:59;;;;;;;9.63;4.83;;;;;;;17.40;100.00;101159.69;1794274;80;20902;-91
2021/08/15 00:34:41;;;;;;;15.70;4.83;;;;;;;17.41;100.00;101163.21;1794150;80;21004;-87
2021/08/15 00:37:07;;;;;;;13.30;4.80;;;;;;;17.41;100.00;101157.77;1793992;80;20962;-87
2021/08/15 00:39:33;;;;;;;14.23;4.70;;;;;;;17.41;100.00;101155.04;1794239;80;20898;-86
2021/08/15 00:41:59;;;;;;;11.93;4.33;;;;;;;17.40;100.00;101152.06;1794141;80;21032;-86
2021/08/15 00:44:25;;;;;;;11.60;4.50;;;;;;;17.38;100.00;101149.65;1794075;80;21052;-88
2021/08/15 00:46:52;;;;;;;9.65;4.42;;;;;;;17.36;100.00;101150.48;1794128;80;21536;-88
2021/08/15 00:49:19;;;;;;;13.58;4.92;;;;;;;17.40;100.00;101152.87;1794062;80;21088;-87
2021/08/15 00:51:44;;;;;;;15.35;4.25;;;;;;;17.40;100.00;101152.87;1793779;80;21533;-86
2021/08/15 00:54:10;;;;;;;10.40;4.78;;;;;;;17.39;100.00;101145.81;1794127;80;20831;-89
2021/08/15 00:56:36;;;;;;;9.05;4.67;;;;;;;17.33;100.00;101146.98;1794119;80;20968;-87
2021/08/15 00:59:05;;;;;;;9.65;4.55;;;;;;;17.31;100.00;101146.45;1794032;80;21194;-86
2021/08/15 01:01:33;;;;;;;9.55;4.22;;;;;;;17.26;100.00;101145.14;1715734;83;22180;-84
2021/08/15 01:04:04;;;;;;;10.38;4.37;;;;;;;17.09;100.00;101129.82;1716302;83;21026;-87
2021/08/15 01:06:34;;;;;;;12.78;4.58;;;;;;;17.09;100.00;101129.82;1715818;83;21097;-93
2021/08/15 01:09:04;;;;;;;13.98;4.35;;;;;;;17.16;100.00;101144.72;1715850;82;20994;-90
2021/08/15 01:11:35;;;;;;;8.90;4.22;;;;;;;17.12;100.00;101145.05;1716229;83;21973;-87
2021/08/15 01:14:05;;;;;;;8.98;4.53;;;;;;;17.09;100.00;101150.25;1718291;83;21605;-86
2021/08/15 01:16:42;;;;;;;12.23;4.62;;;;;;;17.05;100.00;101145.94;1718263;83;21014;-85
2021/08/15 01:19:09;;;;;;;13.32;4.95;;;;;;;16.99;100.00;101149.27;1662216;86;21523;-86
2021/08/15 01:21:37;;;;;;;10.23;4.80;;;;;;;16.96;100.00;101143.59;1658390;86;21022;-87
2021/08/15 01:24:05;;;;;;;12.33;5.08;;;;;;;16.95;100.00;101152.87;1662315;86;21960;-86
2021/08/15 01:26:31;;;;;;;10.95;4.70;;;;;;;16.94;100.00;101151.22;1717034;82;21038;-91
2021/08/15 01:28:57;;;;;;;10.98;5.05;;;;;;;16.92;100.00;101152.09;1745187;82;21534;-88
2021/08/15 01:31:25;;;;;;;13.78;4.40;;;;;;;16.90;100.00;101147.47;1745349;82;20857;-87
2021/08/15 01:33:52;;;;;;;10.53;4.53;;;;;;;16.89;100.00;101142.58;1745249;82;20979;-87
2021/08/15 01:36:21;;;;;;;12.03;5.00;;;;;;;16.88;100.00;101142.85;1745113;82;21100;-87
2021/08/15 01:38:50;;;;;;;11.30;5.05;;;;;;;16.88;100.00;101142.85;1745182;82;21195;-88
2021/08/15 01:41:17;;;;;;;13.85;4.65;;;;;;;16.90;100.00;101148.27;1745391;82;21507;-87
2021/08/15 01:43:57;;;;;;;9.63;4.70;;;;;;;16.92;100.00;101146.08;1745291;82;21008;-85
2021/08/15 01:46:30;;;;;;;17.23;5.35;;;;;;;16.95;100.00;101147.42;1717774;83;21002;-85
2021/08/15 01:48:57;;;;;;;13.00;5.05;;;;;;;16.95;100.00;101154.23;1718789;83;21126;-85
2021/08/15 01:51:24;;;;;;;13.05;5.15;;;;;;;16.90;100.00;101146.11;1719669;83;20994;-86
2021/08/15 01:53:54;;;;;;;13.28;4.70;;;;;;;16.90;100.00;101146.11;1717990;83;21006;-90
2021/08/15 01:56:22;;;;;;;11.22;4.70;;;;;;;16.86;100.00;101145.07;1717989;83;20998;-90
2021/08/15 01:58:48;;;;;;;11.22;4.92;;;;;;;16.69;100.00;101125.88;1717995;83;21025;-86
2021/08/15 02:01:19;;;;;;;16.82;5.17;;;;;;;16.69;100.00;101125.88;1718141;83;21189;-85
2021/08/15 02:03:46;;;;;;;14.38;5.33;;;;;;;16.80;100.00;101145.12;1717957;83;21164;-85
2021/08/15 02:06:13;;;;;;;17.07;5.40;;;;;;;16.81;100.00;101145.92;1718004;83;21565;-84
2021/08/15 02:08:39;;;;;;;15.50;5.45;;;;;;;16.84;100.00;101147.27;1691249;83;21584;-87
2021/08/15 02:11:05;;;;;;;14.30;6.03;;;;;;;16.84;100.00;101150.80;1710686;83;21074;-86
2021/08/15 02:13:31;;;;;;;12.95;5.72;;;;;;;16.86;100.00;101145.07;1710534;83;21135;-83
2021/08/15 02:15:57;;;;;;;16.65;6.30;;;;;;;16.86;100.00;101154.05;1729907;82;21155;-85
2021/08/15 02:18:23;;;;;;;26.23;8.03;;;;;;;16.89;100.00;101158.11;1739387;82;21644;-85
2021/08/15 02:20:49;;;;;;;24.92;7.00;;;;;;;16.87;100.00;101159.74;1714479;82;20854;-86
2021/08/15 02:23:15;;;;;;;23.07;6.33;;;;;;;16.82;100.00;101161.70;1755926;80;21045;-85
2021/08/15 02:25:41;;;;;;;19.17;5.92;;;;;;;16.79;100.00;101160.36;1777925;79;21592;-89
2021/08/15 02:28:07;;;;;;;18.30;6.62;;;;;;;16.76;100.00;101157.66;1777840;79;20945;-86
2021/08/15 02:30:34;;;;;;;16.97;5.87;;;;;;;16.75;100.00;101160.10;1767363;80;20993;-85
2021/08/15 02:33:03;;;;;;;13.75;5.20;;;;;;;16.72;100.00;101155.79;1777967;79;20998;-88
2021/08/15 02:35:32;;;;;;;16.25;5.53;;;;;;;16.69;100.00;101162.61;1778062;80;20993;-85
2021/08/15 02:37:59;;;;;;;14.13;5.00;;;;;;;16.71;100.00;101167.78;1777655;80;21345;-84
2021/08/15 02:40:25;;;;;;;12.00;4.92;;;;;;;16.73;100.00;101168.29;1777802;80;21046;-86
2021/08/15 02:42:53;;;;;;;15.72;5.03;;;;;;;16.76;100.00;101171.83;1777893;79;21525;-83
2021/08/15 02:45:22;;;;;;;11.48;4.87;;;;;;;16.75;100.00;101162.02;1777826;80;21512;-85
2021/08/15 02:47:48;;;;;;;12.68;5.87;;;;;;;16.72;100.00;101160.68;1777883;80;20985;-85
2021/08/15 02:50:16;;;;;;;14.10;5.58;;;;;;;16.74;100.00;101157.12;1778032;79;21135;-86
2021/08/15 02:52:43;;;;;;;12.07;4.60;;;;;;;16.77;100.00;101162.03;1777843;79;21512;-90
2021/08/15 02:55:10;;;;;;;14.98;5.45;;;;;;;16.86;100.00;101162.22;1777845;79;20962;-86
2021/08/15 02:57:36;;;;;;;10.85;4.62;;;;;;;16.86;100.00;101162.22;1777718;79;20958;-87
2021/08/15 03:00:07;;;;;;;11.90;5.33;;;;;;;16.90;100.00;101163.25;1777891;80;20996;-85
2021/08/15 03:02:33;;;;;;;12.45;5.55;;;;;;;16.96;100.00;101163.45;1777906;80;21822;-84
2021/08/15 03:04:59;;;;;;;12.47;4.95;;;;;;;17.01;100.00;101171.58;1777801;80;20996;-85
2021/08/15 03:07:26;;;;;;;14.47;6.05;;;;;;;17.08;100.00;101171.78;1778066;79;20849;-86
2021/08/15 03:09:53;;;;;;;13.68;5.80;;;;;;;17.14;100.00;101165.98;1777496;80;21019;-82
2021/08/15 03:12:19;;;;;;;11.75;5.22;;;;;;;17.21;100.00;101162.93;1778060;80;21007;-85
2021/08/15 03:14:45;;;;;;;15.53;5.53;;;;;;;17.25;100.00;101168.05;1777787;80;22027;-86
2021/08/15 03:17:12;;;;;;;13.60;5.15;;;;;;;17.31;100.00;101159.27;1777732;79;20872;-85
2021/08/15 03:19:39;;;;;;;13.62;5.62;;;;;;;17.35;100.00;101163.02;1777880;80;20992;-85
2021/08/15 03:22:06;;;;;;;18.12;6.03;;;;;;;17.38;100.00;101158.34;1777831;80;20988;-86
2021/08/15 03:24:32;;;;;;;12.58;5.85;;;;;;;17.44;100.00;101162.63;1777964;80;21484;-85
2021/08/15 03:26:58;;;;;;;16.70;5.90;;;;;;;17.41;100.00;101146.34;1767162;80;21159;-86
2021/08/15 03:29:25;;;;;;;15.03;5.50;;;;;;;17.60;100.00;101168.70;1777883;79;21638;-86
2021/08/15 03:31:50;;;;;;;11.78;4.95;;;;;;;17.65;100.00;101164.00;1777700;80;21468;-89
2021/08/15 03:34:19;;;;;;;11.50;5.45;;;;;;;17.72;100.00;101169.09;1778612;80;20857;-85
2021/08/15 03:36:44;;;;;;;11.48;5.22;;;;;;;17.78;100.00;101165.22;1778033;79;21000;-85
2021/08/15 03:39:10;;;;;;;12.50;5.00;;;;;;;17.85;100.00;101168.41;1777641;80;21113;-87
2021/08/15 03:41:36;;;;;;;9.30;4.53;;;;;;;17.89;100.00;101166.70;1777884;80;20868;-86
2021/08/15 03:44:02;;;;;;;14.68;5.10;;;;;;;17.93;100.00;101158.17;1778041;80;20943;-83
2021/08/15 03:46:28;;;;;;;11.75;4.87;;;;;;;17.99;100.00;101163.00;1777898;80;20992;-86
2021/08/15 03:48:54;;;;;;;13.85;4.83;;;;;;;18.03;100.00;101160.48;1777965;80;20963;-85
2021/08/15 03:51:20;;;;;;;11.83;5.20;;;;;;;18.09;100.00;101162.05;1778186;80;21715;-89
2021/08/15 03:53:46;;;;;;;15.60;5.08;;;;;;;18.12;100.00;101156.81;1777872;80;21483;-83
2021/08/15 03:56:11;;;;;;;12.10;5.20;;;;;;;18.18;100.00;101155.34;1778129;80;20892;-83
2021/08/15 03:58:37;;;;;;;13.08;5.10;;;;;;;18.24;100.00;101157.72;1778158;80;21522;-86
2021/08/15 04:01:03;;;;;;;14.35;5.25;;;;;;;18.33;100.00;101155.92;1798326;79;20881;-86
2021/08/15 04:03:29;;;;;;;13.70;5.00;;;;;;;18.39;100.00;101160.19;1804269;78;21055;-87
2021/08/15 04:05:56;;;;;;;11.05;4.53;;;;;;;18.48;100.00;101153.49;1804346;78;20944;-86
2021/08/15 04:08:23;;;;;;;12.68;4.58;;;;;;;18.55;100.00;101153.09;1777058;80;20941;-86
2021/08/15 04:10:50;;;;;;;10.13;4.97;;;;;;;18.61;100.00;101149.17;1781700;79;20979;-86
2021/08/15 04:13:16;;;;;;;15.65;4.87;;;;;;;18.67;100.00;101153.98;1788272;78;21530;-86
2021/08/15 04:15:41;;;;;;;14.33;5.17;;;;;;;18.74;100.00;101148.99;1767026;80;21169;-88
2021/08/15 04:18:08;;;;;;;12.43;5.58;;;;;;;18.83;100.00;101145.81;1779405;79;20869;-86
2021/08/15 04:20:34;;;;;;;15.83;5.25;;;;;;;18.92;100.00;101150.83;1777777;80;21499;-86
2021/08/15 04:23:00;;;;;;;15.15;4.85;;;;;;;19.01;100.00;101150.38;1777866;80;20988;-84
2021/08/15 04:25:26;;;;;;;13.20;4.67;;;;;;;19.08;100.00;101152.69;1777812;80;20967;-88
2021/08/15 04:27:52;;;;;;;17.00;5.47;;;;;;;19.11;100.00;101160.28;1777977;80;21936;-85
2021/08/15 04:30:18;;;;;;;11.80;5.03;;;;;;;19.19;100.00;101169.70;1777838;80;21601;-87
2021/08/15 04:32:43;;;;;;;10.32;5.00;;;;;;;19.34;100.00;101163.92;1777911;80;20889;-84
2021/08/15 04:35:10;;;;;;;14.00;5.30;;;;;;;19.52;100.00;101162.98;1777257;79;20986;-87
2021/08/15 04:37:36;;;;;;;13.45;6.05;;;;;;;19.86;100.00;101165.05;1803288;79;21766;-87
2021/08/15 04:40:05;;;;;;;15.48;5.35;;;;;;;20.06;100.00;101159.10;1780689;79;21150;-86
2021/08/15 04:42:31;;;;;;;16.15;5.42;;;;;;;20.25;100.00;101156.73;1783509;79;21614;-87
2021/08/15 04:44:57;;;;;;;11.40;5.33;;;;;;;20.30;100.00;101158.80;1785867;79;20996;-86
2021/08/15 04:47:23;;;;;;;13.88;5.08;;;;;;;20.46;100.00;101157.03;1794104;79;20885;-89
2021/08/15 04:49:49;;;;;;;14.68;5.15;;;;;;;20.63;100.00;101156.61;1794879;78;21000;-86
2021/08/15 04:52:15;;;;;;;10.93;5.10;;;;;;;20.73;100.00;101151.98;1779880;80;21927;-87
2021/08/15 04:54:40;;;;;;;18.48;5.83;;;;;;;20.84;100.00;101151.95;1778101;80;20951;-85
2021/08/15 04:57:06;;;;;;;25.72;8.30;;;;;;;20.84;100.00;101154.70;1777962;80;20927;-87
2021/08/15 04:59:33;;;;;;;19.35;6.28;;;;;;;20.89;100.00;101155.13;1777920;80;21536;-83
2021/08/15 05:02:01;;;;;;;13.65;5.33;;;;;;;21.20;100.00;101150.39;1767329;80;21035;-87
2021/08/15 05:04:26;;;;;;;14.13;4.83;;;;;;;21.77;100.00;101147.64;1777621;80;20979;-87
2021/08/15 05:06:52;;;;;;;11.50;4.53;;;;;;;22.49;100.00;101146.70;1791872;79;20882;-85
2021/08/15 05:09:18;;;;;;;10.63;4.72;;;;;;;23.32;100.00;101150.38;1779082;79;20898;-86
2021/08/15 05:11:46;;;;;;;12.82;4.70;;;;;;;24.10;100.00;101149.02;1778050;79;20919;-87
2021/08/15 05:14:12;;;;;;;11.08;4.47;;;;;;;24.82;99.68;101148.77;1768565;79;21481;-85
2021/08/15 05:16:38;;;;;;;10.13;4.50;;;;;;;24.92;95.35;101147.75;1780536;79;21339;-87
2021/08/15 05:19:04;;;;;;;12.68;4.62;;;;;;;25.04;89.93;101147.53;1778791;79;20933;-87
2021/08/15 05:21:30;;;;;;;8.38;3.98;;;;;;;25.45;89.06;101144.31;1778351;80;20880;-86
2021/08/15 05:23:57;;;;;;;10.65;4.58;;;;;;;26.03;87.15;101137.94;1767449;80;21012;-87
2021/08/15 05:26:24;;;;;;;8.83;4.75;;;;;;;26.41;78.95;101140.75;1777796;80;20980;-90
2021/08/15 05:28:51;;;;;;;8.65;4.28;;;;;;;26.49;75.98;101137.03;1777889;80;21134;-91
2021/08/15 05:31:17;;;;;;;6.05;4.03;;;;;;;27.11;76.20;101131.29;1778047;79;21039;-89
2021/08/15 05:33:43;;;;;;;7.12;3.83;;;;;;;27.54;68.20;101130.91;1767204;80;20892;-86
2021/08/15 05:36:09;;;;;;;10.80;4.30;;;;;;;27.82;66.90;101128.55;1786013;79;20880;-87
2021/08/15 05:38:35;;;;;;;9.98;3.98;;;;;;;28.60;65.26;101134.02;1778007;80;21050;-86
2021/08/15 05:41:01;;;;;;;7.00;4.30;;;;;;;29.08;62.25;101130.27;1777950;80;21112;-89
2021/08/15 05:43:27;;;;;;;9.15;4.00;;;;;;;29.80;58.96;101123.16;1778018;80;21461;-88
2021/08/15 05:45:53;;;;;;;10.30;3.75;;;;;;;30.08;55.44;101130.22;1778024;80;20857;-86
2021/08/15 05:48:19;;;;;;;6.12;3.80;;;;;;;30.42;54.61;101130.22;1777977;80;21511;-90
2021/08/15 05:50:45;;;;;;;8.23;4.25;;;;;;;30.85;51.91;101125.03;1782993;79;20869;-90
2021/08/15 05:53:11;;;;;;;7.75;3.85;;;;;;;30.88;50.19;101129.23;1809969;79;21737;-90
2021/08/15 05:55:37;;;;;;;9.83;4.20;;;;;;;30.86;48.42;101130.83;1809905;78;20861;-91
2021/08/15 05:58:03;;;;;;;9.13;3.60;;;;;;;30.84;48.65;101127.63;1807983;79;20948;-86
2021/08/15 06:00:29;;;;;;;10.08;3.65;;;;;;;31.07;49.42;101130.19;1809955;79;20941;-92
2021/08/15 06:02:55;;;;;;;9.38;3.42;;;;;;;31.50;49.49;101121.49;1810160;78;21264;-90
2021/08/15 06:05:21;;;;;;;7.90;4.17;;;;;;;31.98;46.09;101124.13;1809593;79;21147;-93
2021/08/15 06:07:47;;;;;;;9.35;3.60;;;;;;;31.74;44.31;101122.00;1809882;78;20985;-84
2021/08/15 06:10:13;;;;;;;9.95;3.55;;;;;;;31.49;44.75;101124.69;1796937;79;20900;-81
2021/08/15 06:12:39;;;;;;;10.00;3.65;;;;;;;31.11;45.58;101121.25;1807323;78;20841;-87
2021/08/15 06:15:12;;;;;;;8.25;3.85;;;;;;;31.31;46.73;101124.56;1809161;78;21280;-83
2021/08/15 06:17:44;;;;;;;8.43;3.72;;;;;;;31.63;45.79;101117.79;1814803;79;21186;-84
2021/08/15 06:20:12;;;;;;;9.55;3.45;;;;;;;32.35;45.67;101132.75;1806847;79;21515;-86
2021/08/15 06:22:44;;;;;;;7.67;3.70;;;;;;;32.82;44.24;101123.83;1806810;79;21014;-87
2021/08/15 06:25:11;;;;;;;;;;;;;;;32.84;42.96;101120.66;1809627;79;21007;-89
2021/08/15 06:27:42;;;;;;;9.35;4.00;;;;;;;33.23;43.07;101130.39;1806932;79;20162;-86
2021/08/15 06:30:07;;;;;;;9.88;3.80;;;;;;;33.30;42.27;101123.98;1802457;79;21611;-85
2021/08/15 06:32:32;;;;;;;7.80;4.05;;;;;;;33.60;41.30;101117.94;1806909;79;21010;-84
2021/08/15 06:34:58;;;;;;;7.87;3.52;;;;;;;34.40;40.98;101110.71;1807031;79;21130;-85
2021/08/15 06:37:24;;;;;;;8.50;3.83;;;;;;;35.16;39.67;101115.27;1780483;79;20884;-82
2021/08/15 06:39:50;;;;;;;5.60;3.75;;;;;;;35.39;36.90;101113.22;1807100;79;20877;-86
2021/08/15 06:42:16;;;;;;;5.75;3.98;;;;;;;35.25;37.82;101110.58;1780874;79;21554;-85
2021/08/15 06:44:42;;;;;;;6.15;3.75;;;;;;;35.83;36.89;101114.91;1806885;79;20927;-86
2021/08/15 06:47:08;;;;;;;7.17;4.00;;;;;;;36.09;36.35;101111.94;1806889;79;20900;-81
2021/08/15 06:49:34;;;;;;;7.95;4.20;;;;;;;36.50;35.26;101116.52;1807199;79;20931;-83
2021/08/15 06:52:00;;;;;;;6.15;4.17;;;;;;;36.77;34.17;101106.06;1807019;79;20848;-85
2021/08/15 06:54:25;;;;;;;12.95;4.78;;;;;;;37.15;35.05;101112.00;1807013;79;21147;-87
2021/08/15 06:56:51;;;;;;;7.17;5.00;;;;;;;37.84;33.66;101117.85;1780391;79;20884;-85
2021/08/15 06:59:17;;;;;;;10.53;5.50;;;;;;;38.13;32.38;101110.98;1806978;79;20860;-85
2021/08/15 07:01:43;;;;;;;17.80;6.12;;;;;;;38.28;31.74;101110.03;1807203;79;20884;-86
2021/08/15 07:04:09;;;;;;;8.15;4.80;;;;;;;38.11;31.28;101112.81;1807869;79;20940;-87
2021/08/15 07:06:36;;;;;;;5.30;3.83;;;;;;;37.93;30.36;101116.05;1807089;79;21350;-84
2021/08/15 07:09:02;;;;;;;4.83;3.70;;;;;;;37.42;30.27;101109.86;1806602;79;20984;-84
2021/08/15 07:11:28;;;;;;;5.20;3.83;;;;;;;37.25;29.72;101113.20;1806993;79;21050;-91
2021/08/15 07:13:54;;;;;;;8.70;4.37;;;;;;;36.98;29.01;101115.33;1802174;79;20895;-82
2021/08/15 07:16:20;;;;;;;6.58;3.90;;;;;;;36.42;29.11;101113.05;1808961;78;20928;-84
2021/08/15 07:18:46;;;;;;;7.22;3.87;;;;;;;35.71;30.42;101112.84;1814981;78;20981;-83
2021/08/15 07:21:12;;;;;;;12.05;4.15;;;;;;;35.90;30.65;101104.36;1814985;79;20849;-81
2021/08/15 07:23:38;;;;;;;6.60;4.15;;;;;;;36.27;30.18;101108.86;1814976;78;20939;-81
2021/08/15 07:26:04;;;;;;;9.13;4.12;;;;;;;35.45;30.52;101107.95;1814840;79;21516;-81
2021/08/15 07:28:30;;;;;;;6.30;4.00;;;;;;;35.73;31.55;101104.61;1814822;78;20818;-81
2021/08/15 07:30:56;;;;;;;8.68;4.15;;;;;;;35.82;30.31;101099.27;1814903;79;21048;-84
2021/08/15 07:33:22;;;;;;;6.55;3.90;;;;;;;36.29;29.93;101106.42;1814937;78;21039;-78
2021/08/15 07:35:48;;;;;;;8.75;4.25;;;;;;;36.72;30.40;101100.92;1815030;78;20893;-80
2021/08/15 07:38:14;;;;;;;5.12;4.22;;;;;;;37.42;30.41;101097.21;1814864;78;21605;-79
2021/08/15 07:40:40;;;;;;;5.50;4.10;;;;;;;38.35;29.34;101109.84;1814687;79;20983;-80
2021/08/15 07:43:06;;;;;;;8.05;3.90;;;;;;;38.31;28.46;101104.92;1814716;78;21019;-81
2021/08/15 07:45:33;;;;;;;5.55;3.90;;;;;;;38.25;26.99;101111.69;1814729;79;21039;-81
2021/08/15 07:48:01;;;;;;;7.00;3.42;;;;;;;38.02;27.11;101108.41;1813077;79;21499;-81
2021/08/15 07:50:35;;;;;;;6.33;4.00;;;;;;;37.68;26.36;101109.55;1813096;79;21527;-81
2021/08/15 07:52:57;;;;;;;6.45;3.72;;;;;;;37.18;26.63;101109.73;1812829;79;21024;-83
2021/08/15 07:55:23;;;;;;;7.05;4.05;;;;;;;36.35;27.08;101106.91;1814898;79;22207;-80
2021/08/15 07:57:49;;;;;;;5.92;3.80;;;;;;;35.35;28.54;101111.66;1814925;79;21003;-81
2021/08/15 08:00:15;;;;;;;8.80;3.80;;;;;;;35.23;28.81;101110.98;1815008;78;20935;-80
2021/08/15 08:02:44;;;;;;;7.85;3.50;;;;;;;35.14;28.87;101118.30;1814898;78;20996;-86
2021/08/15 08:05:09;;;;;;;7.67;3.45;;;;;;;35.03;28.68;101114.98;1814163;78;21485;-82
2021/08/15 08:07:35;;;;;;;8.28;3.60;;;;;;;34.64;29.51;101104.75;1814990;79;21110;-82
2021/08/15 08:10:01;;;;;;;4.85;3.50;;;;;;;34.16;29.95;101111.09;1803904;78;21196;-81
2021/08/15 08:12:27;;;;;;;6.55;3.30;;;;;;;33.59;31.18;101109.34;1814980;78;20924;-81
2021/08/15 08:14:52;;;;;;;11.78;3.60;;;;;;;33.65;30.96;101107.71;1815029;79;20861;-79
2021/08/15 08:17:18;;;;;;;6.45;3.17;;;;;;;33.60;30.20;101108.16;1815101;79;20952;-81
2021/08/15 08:19:45;;;;;;;13.08;3.40;;;;;;;33.22;31.00;101107.25;1815071;79;21100;-82
2021/08/15 08:22:11;;;;;;;6.72;3.55;;;;;;;33.57;31.65;101101.98;1814887;78;21452;-82
2021/08/15 08:24:38;;;;;;;6.62;3.15;;;;;;;33.65;30.90;101103.52;1815136;78;20964;-81
2021/08/15 08:27:04;;;;;;;8.98;3.50;;;;;;;33.59;30.62;101103.75;1803717;79;21035;-82
2021/08/15 08:29:30;;;;;;;4.45;3.05;;;;;;;33.17;29.50;101102.06;1814838;79;20999;-84
2021/08/15 08:31:56;;;;;;;6.97;3.70;;;;;;;32.72;30.50;101105.11;1815056;78;21127;-80
2021/08/15 08:34:22;;;;;;;6.30;3.08;;;;;;;32.91;30.16;101100.48;1815041;79;20931;-79
2021/08/15 08:36:48;;;;;;;10.05;3.17;;;;;;;33.10;29.80;101103.48;1815053;78;22695;-83
2021/08/15 08:39:14;;;;;;;6.35;3.45;;;;;;;32.81;30.07;101099.91;1815092;78;20928;-83
2021/08/15 08:41:40;;;;;;;7.60;3.33;;;;;;;32.39;30.49;101102.88;1814910;78;21011;-81
2021/08/15 08:44:09;;;;;;;9.10;3.20;;;;;;;32.26;31.69;101101.05;1798415;79;21939;-80
2021/08/15 08:46:35;;;;;;;7.53;3.27;;;;;;;32.72;31.32;101098.13;1783341;80;20996;-82
2021/08/15 08:49:02;;;;;;;7.00;3.37;;;;;;;32.57;30.93;101098.73;1783930;80;21238;-79
2021/08/15 08:51:30;;;;;;;5.37;2.90;;;;;;;32.38;31.26;101099.88;1782925;80;21140;-80
2021/08/15 08:53:57;;;;;;;7.87;3.12;;;;;;;32.30;30.91;101090.72;1772025;80;21469;-82
2021/08/15 08:56:23;;;;;;;6.28;2.95;;;;;;;32.34;31.58;101084.53;1772168;80;21130;-81
2021/08/15 08:58:51;;;;;;;13.20;3.77;;;;;;;32.57;31.77;101091.75;1783105;80;20935;-81
2021/08/15 09:01:17;;;;;;;7.12;3.52;;;;;;;33.19;31.06;101089.89;1781254;80;20988;-89
2021/08/15 09:03:44;;;;;;;9.18;3.12;;;;;;;33.91;30.04;101089.03;1783287;80;20940;-86
2021/08/15 09:06:22;;;;;;;7.90;3.50;;;;;;;34.30;28.89;101090.80;1783042;80;21524;-87
2021/08/15 09:08:50;;;;;;;10.13;3.20;;;;;;;34.43;28.07;101084.09;1783156;80;21130;-87
2021/08/15 09:11:26;;;;;;;7.15;3.65;;;;;;;34.58;29.63;101076.39;1779158;79;21031;-86
2021/08/15 09:14:04;;;;;;;7.20;3.65;;;;;;;34.82;27.68;101074.56;1777816;80;21023;-88
2021/08/15 09:16:55;;;;;;;9.78;3.45;;;;;;;34.95;27.97;101072.05;1778026;80;21030;-85
2021/08/15 09:19:35;;;;;;;7.65;3.50;;;;;;;35.52;27.64;101067.80;1777983;80;21633;-88
2021/08/15 09:22:25;;;;;;;10.85;3.90;;;;;;;35.08;26.57;101066.12;1776731;80;21142;-89
2021/08/15 09:25:05;;;;;;;7.47;3.62;;;;;;;34.47;27.87;101061.66;1778079;79;20988;-89
2021/08/15 09:27:39;;;;;;;12.88;3.45;;;;;;;34.21;28.25;101063.89;1778076;80;21023;-87
2021/08/15 09:30:27;;;;;;;8.45;3.55;;;;;;;33.85;28.59;101064.07;1777954;80;21097;-85
2021/08/15 09:33:09;;;;;;;6.05;3.85;;;;;;;34.49;28.60;101057.24;1777874;80;20984;-83
2021/08/15 09:35:41;;;;;;;5.67;2.98;;;;;;;35.07;27.46;101050.53;1727043;82;21286;-86
2021/08/15 09:38:14;;;;;;;7.30;3.25;;;;;;;35.41;27.06;101051.89;1708389;84;20980;-89
2021/08/15 09:40:48;;;;;;;7.80;3.25;;;;;;;35.32;26.57;101049.42;1708660;84;21010;-86
2021/08/15 09:43:27;;;;;;;11.20;3.35;;;;;;;34.76;28.06;101042.01;1684328;85;21479;-86
2021/08/15 09:46:01;;;;;;;7.00;3.45;;;;;;;34.65;27.78;101044.72;1639772;85;21022;-88
2021/08/15 09:48:36;;;;;;;6.17;3.12;;;;;;;34.54;27.99;101049.02;1661178;85;21059;-87
2021/08/15 09:51:18;;;;;;;9.05;3.52;;;;;;;34.46;28.17;101041.88;1683943;85;21006;-84
2021/08/15 09:53:58;;;;;;;11.00;3.80;;;;;;;34.21;28.53;101045.70;1661248;84;21042;-84
2021/08/15 09:56:40;;;;;;;11.20;3.60;;;;;;;34.11;28.58;101042.36;1684139;85;21003;-86
2021/08/15 09:59:20;;;;;;;8.05;3.55;;;;;;;33.78;28.38;101035.38;1628417;88;21126;-84
2021/08/15 10:01:50;;;;;;;8.45;3.40;;;;;;;33.31;29.87;101041.16;1596135;89;21182;-85
2021/08/15 10:04:17;;;;;;;7.87;3.30;;;;;;;33.03;29.66;101037.86;1545682;92;21126;-86
2021/08/15 10:06:46;;;;;;;5.92;3.42;;;;;;;32.92;30.16;101030.09;1545530;91;21083;-83
2021/08/15 10:09:12;;;;;;;6.87;3.40;;;;;;;32.84;30.14;101027.91;1545769;92;21058;-91
2021/08/15 10:11:40;;;;;;;7.30;3.70;;;;;;;32.91;30.23;101024.30;1547734;92;21074;-86
2021/08/15 10:14:08;;;;;;;12.35;3.90;;;;;;;32.87;30.69;101031.30;1548285;92;21131;-89
2021/08/15 10:16:57;;;;;;;10.68;4.22;;;;;;;32.80;30.05;101020.16;1548341;92;21079;-90
2021/08/15 10:19:47;;;;;;;9.43;3.67;;;;;;;32.46;30.17;101026.17;1494593;96;21183;-86
2021/08/15 10:22:23;;;;;;;12.93;3.85;;;;;;;31.97;30.79;101029.09;1494763;96;21033;-86
2021/08/15 10:24:56;;;;;;;9.73;3.62;;;;;;;31.70;31.32;101022.25;1471379;97;21122;-90
2021/08/15 10:27:45;;;;;;;13.08;4.10;;;;;;;31.48;32.05;101010.27;1425545;100;21377;-83
2021/08/15 10:30:50;;;;;;;11.78;4.60;;;;;;;31.25;32.48;101015.51;1424758;99;21075;-86
2021/08/15 10:33:17;;;;;;;8.28;3.90;;;;;;;30.97;33.50;101013.37;1424203;100;21638;-89
2021/08/15 10:35:43;;;;;;;16.07;3.85;;;;;;;30.81;33.08;101003.15;1424194;100;21190;-86
2021/08/15 10:38:17;;;;;;;6.58;3.70;;;;;;;30.75;33.82;101003.48;1424299;100;21174;-87
2021/08/15 10:40:49;;;;;;;11.78;4.10;;;;;;;30.74;33.94;100999.11;1457200;97;21128;-83
2021/08/15 10:43:35;;;;;;;16.20;4.10;;;;;;;30.68;34.13;100996.49;1442312;98;21095;-84
2021/08/15 10:46:17;;;;;;;12.70;3.72;;;;;;;30.69;33.92;100997.28;1442234;98;21071;-89
2021/08/15 10:49:00;;;;;;;15.57;4.20;;;;;;;30.75;34.25;101000.70;1442440;98;21149;-80
2021/08/15 10:51:46;;;;;;;11.57;3.87;;;;;;;30.61;33.68;100998.42;1442430;98;21126;-82
2021/08/15 10:54:33;;;;;;;7.70;3.62;;;;;;;30.47;33.77;100993.55;1488986;95;21150;-82
2021/08/15 10:57:04;;;;;;;9.35;3.67;;;;;;;30.48;34.87;100989.59;1530343;91;21093;-86
2021/08/15 10:59:36;;;;;;;7.83;3.55;;;;;;;30.50;35.39;100989.42;1569531;91;21554;-85
2021/08/15 11:02:11;;;;;;;12.07;3.92;;;;;;;30.56;34.87;100987.05;1601571;89;21553;-82
2021/08/15 11:04:38;;;;;;;9.80;3.50;;;;;;;30.48;34.68;100989.00;1497259;95;21125;-84
2021/08/15 11:07:05;;;;;;;7.70;3.47;;;;;;;30.49;34.84;100989.19;1527010;93;21202;-85
2021/08/15 11:09:57;;;;;;;18.02;4.78;;;;;;;30.62;35.05;100985.52;1538537;92;21072;-90
2021/08/15 11:12:24;;;;;;;9.08;3.42;;;;;;;30.55;34.80;100979.89;1533077;92;21070;-82
2021/08/15 11:15:08;;;;;;;10.58;3.92;;;;;;;30.38;34.32;100979.97;1541089;93;21019;-84
2021/08/15 11:17:37;;;;;;;7.30;3.40;;;;;;;30.37;35.35;100980.37;1540753;93;21058;-86
2021/08/15 11:20:37;;;;;;;7.65;3.80;;;;;;;30.43;34.95;100976.04;1545432;92;21120;-84
2021/08/15 11:23:17;;;;;;;8.53;3.62;;;;;;;30.44;34.12;100973.45;1580372;90;20965;-86